Fourmile, KY (40939)

5:29 AM EST on December 04, 2016 (GMT -0500)
Mackey Bend | | Change Station

Elev 1007 ft 36.82 °N, 83.96 °W | Updated 19 seconds ago

Light Rain
Light Rain
37.5 °F
Feels Like 38 °F
N
0.0
Wind Variable Wind from NE

Today
High -- | Low -- °F
--% Chance of Precip.
Yesterday
High -- | Low -- °F
Precip. -- in
Pressure 30.22 in
Visibility 7.0 miles
Clouds Mostly Cloudy 4300 ft
Mostly Cloudy 4900 ft
Overcast 6000 ft
Windchill 38 °F
Dew Point 37 °F
Humidity 98%
Rainfall 0.02 in
Snow Depth Not available.
7:32 AM 5:18 PM
Waxing Crescent, 21% visible
METAR K1A6 041015Z AUTO 00000KT 7SM -RA BKN043 BKN049 OVC060 04/02 A3022 RMK AO2 P0002 T00350024
Pressure 30.22 in
Visibility 7.0 miles
Clouds Mostly Cloudy 4300 ft
Mostly Cloudy 4900 ft
Overcast 6000 ft
Windchill 38 °F
Dew Point 37 °F
Humidity 98%
Rainfall 0.02 in
Snow Depth Not available.
7:32 AM 5:18 PM
Waxing Crescent, 21% visible
METAR K1A6 041015Z AUTO 00000KT 7SM -RA BKN043 BKN049 OVC060 04/02 A3022 RMK AO2 P0002 T00350024

10-Day Weather Forecast

Almanac

Astronomy

Dec. 04, 2016 Rise Set
Actual Time
Civil Twilight
Nautical Twilight
Astronomical Twilight
Moon
Length of Visible Light
Length of Day
Tomorrow will be .
, % of the Moon is Illuminated

Today's Extremes

State Highs State Lows

Community

WunderPhotos

Upload Photos

1,955,591 photos uploaded!

WunderBlog® & News

Nearby

Air Quality

  Air Quality AQ Index Pollutant
Not available.

Snow Depth

Station Depth Elevation

Earthquake Activity

City Distance Mag. Time & Date
Minimum magnitude displayed is 2.5.

Coastal Water Temperatures

Place Temperature

Stations

Nearby Weather Stations

Station Location Temp. Windchill Dew Point Humidity Wind Precip. Elev Updated Type
                   

Watches & Warnings

There are currently no watches in effect.